createdAt,value
2019-04-26T00:05:03.351Z,22.6
2019-04-26T00:20:03.995Z,22.5
2019-04-26T00:35:02.930Z,22.3
2019-04-26T00:50:03.153Z,22.3
2019-04-26T01:05:06.989Z,22.2
2019-04-26T01:20:02.975Z,22.1
2019-04-26T01:35:03.152Z,22.1
2019-04-26T01:50:03.411Z,22
2019-04-26T02:05:03.768Z,22
2019-04-26T02:20:03.554Z,22
2019-04-26T02:35:04.509Z,21.9
2019-04-26T02:50:05.255Z,21.9
2019-04-26T03:05:03.099Z,21.9
2019-04-26T03:20:04.289Z,21.8
2019-04-26T03:35:03.445Z,21.8
2019-04-26T03:50:05.496Z,21.8
2019-04-26T04:05:04.616Z,21.8
2019-04-26T04:20:05.953Z,21.8
2019-04-26T04:35:06.414Z,21.7
2019-04-26T04:50:03.322Z,21.7
2019-04-26T05:05:04.378Z,21.7
2019-04-26T05:20:03.808Z,21.7
2019-04-26T05:35:03.908Z,21.7
2019-04-26T05:50:04.969Z,21.7
2019-04-26T06:05:03.658Z,21.8
2019-04-26T06:20:05.701Z,21.9
2019-04-26T06:35:06.327Z,22
2019-04-26T06:50:05.543Z,22.1
2019-04-26T07:05:05.605Z,22.2
2019-04-26T07:20:04.428Z,22.3
2019-04-26T07:35:04.562Z,22.4
2019-04-26T07:50:07.155Z,22.5
2019-04-26T08:05:04.673Z,22.5
2019-04-26T08:20:07.171Z,22.6
2019-04-26T08:35:06.695Z,22.6
2019-04-26T08:50:03.935Z,22.7
2019-04-26T09:05:05.073Z,22.8
2019-04-26T09:20:07.755Z,22.8
2019-04-26T09:35:04.917Z,22.8
2019-04-26T09:50:03.667Z,22.9
2019-04-26T10:05:11.902Z,22.9
2019-04-26T10:20:09.667Z,22.9
2019-04-26T10:35:05.023Z,22.9
2019-04-26T10:50:03.715Z,22.9
2019-04-26T11:05:11.289Z,22.9
2019-04-26T11:20:06.138Z,22.9
2019-04-26T11:35:05.755Z,22.9
2019-04-26T11:50:05.466Z,22.9
2019-04-26T12:05:04.786Z,22.9
2019-04-26T12:20:04.097Z,22.9
2019-04-26T12:35:03.199Z,22.9
2019-04-26T12:50:04.024Z,23
2019-04-26T13:05:04.549Z,23
2019-04-26T13:20:06.091Z,23
2019-04-26T13:35:03.267Z,23
2019-04-26T13:50:04.777Z,22.9
2019-04-26T14:05:11.038Z,22.9
2019-04-26T14:20:06.033Z,22.9
2019-04-26T14:35:03.626Z,22.9
2019-04-26T14:50:13.597Z,22.8
2019-04-26T15:05:09.251Z,22.8
2019-04-26T15:20:05.985Z,22.8
2019-04-26T15:35:03.232Z,22.8
2019-04-26T15:50:09.825Z,22.8
2019-04-26T16:05:04.025Z,22.8
2019-04-26T16:20:05.225Z,22.7
2019-04-26T16:35:03.677Z,22.7
2019-04-26T16:50:06.030Z,22.8
2019-04-26T17:05:14.552Z,22.9
2019-04-26T17:20:10.773Z,22.9
2019-04-26T17:35:07.422Z,22.9
2019-04-26T17:50:06.540Z,22.8
2019-04-26T18:05:06.308Z,22.7
2019-04-26T18:20:05.036Z,22.6
2019-04-26T18:35:03.641Z,22.6
2019-04-26T18:50:12.247Z,22.6
2019-04-26T19:05:03.943Z,22.5
2019-04-26T19:20:06.833Z,22.5
2019-04-26T19:35:06.964Z,22.5
2019-04-26T19:50:09.463Z,22.5
2019-04-26T20:05:06.420Z,22.4
2019-04-26T20:20:16.738Z,22.4
2019-04-26T20:35:03.504Z,22.4
2019-04-26T20:50:04.336Z,22.4
2019-04-26T21:05:06.083Z,22.4
2019-04-26T21:20:03.165Z,22.5
2019-04-26T21:35:03.591Z,22.6
2019-04-26T21:50:10.315Z,22.6
2019-04-26T22:05:07.936Z,22.7
2019-04-26T22:20:04.917Z,22.7
2019-04-26T22:35:03.255Z,22.8
2019-04-26T22:50:03.372Z,22.8
2019-04-26T23:05:05.911Z,22.9
2019-04-26T23:20:03.893Z,22.9
2019-04-26T23:35:05.988Z,22.9
2019-04-26T23:50:03.989Z,22.9
